createdAt,value
2023-03-07T00:12:20.684Z,47.63
2023-03-07T00:27:22.641Z,48.70
2023-03-07T00:42:24.825Z,43.97
2023-03-07T00:57:26.754Z,47.30
2023-03-07T01:12:28.760Z,48.55
2023-03-07T01:27:30.722Z,61.95
2023-03-07T01:42:32.875Z,62.13
2023-03-07T01:57:39.578Z,87.15
2023-03-07T02:12:42.093Z,87.25
2023-03-07T02:27:45.245Z,82.90
2023-03-07T02:42:48.620Z,93.07
2023-03-07T02:57:50.542Z,86.43
2023-03-07T03:12:52.464Z,93.28
2023-03-07T03:27:54.386Z,89.82
2023-03-07T03:42:56.294Z,73.72
2023-03-07T03:57:59.159Z,69.50
2023-03-07T04:13:01.139Z,63.92
2023-03-07T04:28:03.110Z,60.13
2023-03-07T04:43:05.552Z,62.80
2023-03-07T04:58:11.020Z,57.28
2023-03-07T05:13:13.072Z,57.72
2023-03-07T05:28:17.039Z,50.60
2023-03-07T05:43:18.992Z,45.08
2023-03-07T05:58:20.941Z,47.65
2023-03-07T06:13:25.002Z,49.58
2023-03-07T06:28:27.667Z,43.50
2023-03-07T06:43:29.918Z,43.65
2023-03-07T06:58:31.837Z,42.10
2023-03-07T07:13:34.624Z,45.55
2023-03-07T07:28:36.626Z,47.15
2023-03-07T07:43:38.649Z,42.25
2023-03-07T07:58:40.934Z,39.10
2023-03-07T08:13:43.067Z,36.80
2023-03-07T08:28:45.221Z,31.00
2023-03-07T08:43:47.508Z,25.38
2023-03-07T08:58:52.977Z,23.10
2023-03-07T09:13:54.981Z,31.17
2023-03-07T09:28:57.032Z,28.40
2023-03-07T09:44:25.243Z,20.48
2023-03-07T09:59:45.411Z,19.67
2023-03-07T10:14:58.641Z,20.27
2023-03-07T10:30:06.460Z,21.88
2023-03-07T10:45:13.800Z,21.20
2023-03-07T11:00:18.754Z,19.00
2023-03-07T11:15:24.754Z,21.75
2023-03-07T11:31:08.540Z,20.02
2023-03-07T11:46:12.330Z,16.58
2023-03-07T12:01:16.998Z,18.27
2023-03-07T12:16:29.339Z,17.77
2023-03-07T12:31:39.094Z,15.30
2023-03-07T12:46:54.953Z,16.23
2023-03-07T13:02:04.496Z,16.80
2023-03-07T13:17:10.632Z,26.05
2023-03-07T13:32:50.019Z,12.48
2023-03-07T13:47:51.970Z,16.92
2023-03-07T14:02:54.881Z,11.80
2023-03-07T14:18:15.347Z,21.40
2023-03-07T14:33:18.178Z,14.88
2023-03-07T14:49:01.982Z,27.55
2023-03-07T15:04:19.551Z,11.48
2023-03-07T15:19:39.237Z,10.73
2023-03-07T15:34:41.481Z,14.13
2023-03-07T15:49:49.979Z,13.52
2023-03-07T16:04:53.806Z,15.87
2023-03-07T16:19:55.973Z,13.88
2023-03-07T16:34:57.954Z,13.30
2023-03-07T16:49:59.975Z,11.63
2023-03-07T17:05:01.922Z,15.65
2023-03-07T17:20:06.207Z,14.23
2023-03-07T17:35:09.913Z,13.70
2023-03-07T17:50:12.551Z,15.68
2023-03-07T18:05:14.494Z,14.73
2023-03-07T18:20:19.562Z,15.10
2023-03-07T18:35:23.544Z,18.30
2023-03-07T18:50:25.532Z,13.32
2023-03-07T19:05:27.611Z,15.65
2023-03-07T19:20:29.619Z,15.57
2023-03-07T19:35:31.878Z,14.32
2023-03-07T19:50:33.836Z,14.43
2023-03-07T20:05:41.405Z,14.15
2023-03-07T20:20:43.384Z,15.23
2023-03-07T20:35:45.400Z,16.77
2023-03-07T20:50:47.372Z,15.40
2023-03-07T21:05:57.199Z,15.70
2023-03-07T21:21:00.561Z,18.40
2023-03-07T21:36:04.333Z,13.05
2023-03-07T21:51:06.617Z,9.52
2023-03-07T22:06:10.799Z,10.50
2023-03-07T22:21:14.484Z,18.48
2023-03-07T22:36:16.398Z,9.55
2023-03-07T22:51:18.480Z,8.68
2023-03-07T23:06:21.835Z,6.22
2023-03-07T23:21:27.860Z,8.32
2023-03-07T23:36:31.179Z,10.77
2023-03-07T23:51:34.009Z,11.38
